Terminal Aerodrome Forecast
Issued by NWS Portland, OR

Home | Current Version | Previous Version | Text Only | Print | Product List | Glossary On
Versions: 1 2 3 4 5 6 7 8 9 10 11 12 13 14 15 16 17 18 19 20 21 22 23 24 25 26 27 28 29 30 31 32 33 34
000
FTUS46 KPQR 220541
TAFEUG
TAF
KEUG 220541Z 2206/2306 VRB03KT 4SM -RA BR SCT015 OVC025
     FM221000 20004KT 3SM -RA BR BKN006 OVC011
     FM222000 18005KT 6SM BR SCT010 OVC020
     FM230000 19004KT P6SM BKN025 OVC070=

USA.gov is the U.S. government's official web portal to all federal, state and local government web resources and services.